Rocky Ridge, Ohio
Current Conditions -  °F | °C
As of 1:17 AM on Thursday 27 Nov 2014 (Local Time) from KTDZ Reporting Station
Overcast Overcast  
Wind Chill: 24°   Ceiling: 3100
Heat Index: 32°   Visibility: 10mi
Dew Point: 24°   Wind: 9mph
Humidity: 73%   Direction: 320°NW
Pressure: 30.09"   Gusts: NA
Location:  41.53°N, 83.21°W
Report Text: KTDZ 270617Z AUTO 32008KT 10SM BKN031 OVC043 00/M04 A3009 RMK AO2 T00001044 TSNO
Loading
Personal Weather Stations






























Interactive Weather Map New forecast layout! Learn more

10-Day Weather Forecast

Advertisements
Track Severe Weather on mobile